Time;durP1;ratioP1;P1;durP2;ratioP2;P2;SDS_P1;SDS_P2;PMS_P1;PMS_P2;Temp;Humidity;BMP_temperature;BMP_pressure;BME280_temperature;BME280_humidity;BME280_pressure;Samples;Min_cycle;Max_cycle;Signal;HPM_P1;HPM_P2
2024/01/19 00:00:24;;;;;;;31.38;13.30;;;;;;;;;;5024239;28;20030;-56
2024/01/19 00:02:49;;;;;;;31.35;12.38;;;;;;;;;;5018501;28;20079;-56
2024/01/19 00:05:15;;;;;;;27.90;12.05;;;;;;;;;;5032470;28;20076;-59
2024/01/19 00:07:40;;;;;;;28.83;12.20;;;;;;;;;;5032718;28;20494;-57
2024/01/19 00:10:06;;;;;;;28.55;11.32;;;;;;;;;;5017517;28;20301;-56
2024/01/19 00:12:35;;;;;;;29.92;12.20;;;;;;;;;;5026470;28;20025;-56
2024/01/19 00:15:01;;;;;;;28.17;12.18;;;;;;;;;;5024930;28;20175;-57
2024/01/19 00:17:26;;;;;;;32.17;12.30;;;;;;;;;;5035344;28;20045;-56
2024/01/19 00:19:51;;;;;;;32.97;13.05;;;;;;;;;;5026218;28;20157;-57
2024/01/19 00:22:16;;;;;;;32.95;13.65;;;;;;;;;;5030671;28;20514;-57
2024/01/19 00:24:41;;;;;;;34.10;12.50;;;;;;;;;;5028447;28;20048;-56
2024/01/19 00:27:06;;;;;;;34.23;12.53;;;;;;;;;;5031101;28;20394;-56
2024/01/19 00:29:32;;;;;;;28.25;12.38;;;;;;;;;;5026482;28;20025;-58
2024/01/19 00:31:57;;;;;;;27.53;12.73;;;;;;;;;;5033222;28;20026;-56
2024/01/19 00:34:22;;;;;;;32.13;12.33;;;;;;;;;;5018360;28;20022;-58
2024/01/19 00:36:47;;;;;;;33.27;13.10;;;;;;;;;;5023788;28;20493;-57
2024/01/19 00:39:14;;;;;;;31.27;13.13;;;;;;;;;;5032979;28;20083;-55
2024/01/19 00:41:39;;;;;;;31.88;12.73;;;;;;;;;;5031802;28;20017;-58
2024/01/19 00:44:05;;;;;;;31.37;13.40;;;;;;;;;;5032910;28;20033;-56
2024/01/19 00:46:30;;;;;;;35.28;13.82;;;;;;;;;;5032803;28;20060;-57
2024/01/19 00:48:55;;;;;;;33.00;13.70;;;;;;;;;;5031429;28;20056;-58
2024/01/19 00:51:20;;;;;;;34.77;13.90;;;;;;;;;;5019304;28;20022;-57
2024/01/19 00:53:45;;;;;;;31.63;13.13;;;;;;;;;;5034012;28;20117;-56
2024/01/19 00:56:10;;;;;;;33.08;13.88;;;;;;;;;;5036335;28;20026;-56
2024/01/19 00:58:37;;;;;;;31.95;14.13;;;;;;;;;;5032828;28;20108;-57
2024/01/19 01:01:02;;;;;;;37.10;13.48;;;;;;;;;;5031756;28;20028;-57
2024/01/19 01:03:28;;;;;;;36.65;12.73;;;;;;;;;;5031448;28;20471;-57
2024/01/19 01:05:56;;;;;;;33.42;12.90;;;;;;;;;;5031088;28;20023;-57
2024/01/19 01:08:21;;;;;;;33.10;13.77;;;;;;;;;;5011843;28;20034;-58
2024/01/19 01:10:46;;;;;;;35.30;13.82;;;;;;;;;;5011037;28;20048;-60
2024/01/19 01:13:11;;;;;;;36.10;12.80;;;;;;;;;;5027267;28;20499;-57
2024/01/19 01:15:36;;;;;;;31.25;12.88;;;;;;;;;;5025929;28;20112;-56
2024/01/19 01:18:02;;;;;;;34.90;13.17;;;;;;;;;;5023101;28;20389;-59
2024/01/19 01:20:27;;;;;;;34.47;13.60;;;;;;;;;;5030897;28;20018;-57
2024/01/19 01:22:52;;;;;;;36.38;14.82;;;;;;;;;;5014492;28;20026;-57
2024/01/19 01:25:17;;;;;;;34.33;13.57;;;;;;;;;;5011598;28;20038;-56
2024/01/19 01:27:42;;;;;;;34.63;13.68;;;;;;;;;;5011349;28;20100;-58
2024/01/19 01:30:08;;;;;;;34.17;12.80;;;;;;;;;;5021156;28;20063;-58
2024/01/19 01:32:34;;;;;;;35.08;13.65;;;;;;;;;;5028557;28;20038;-56
2024/01/19 01:34:59;;;;;;;36.63;14.65;;;;;;;;;;5022613;28;20049;-56
2024/01/19 01:37:24;;;;;;;34.23;13.90;;;;;;;;;;5022969;28;20520;-56
2024/01/19 01:39:49;;;;;;;36.70;14.50;;;;;;;;;;5019855;28;20056;-58
2024/01/19 01:42:14;;;;;;;41.83;14.73;;;;;;;;;;5028187;28;20084;-58
2024/01/19 01:44:40;;;;;;;35.33;13.17;;;;;;;;;;5029562;28;20035;-56
2024/01/19 01:47:05;;;;;;;37.20;12.53;;;;;;;;;;5023085;28;20482;-56
2024/01/19 01:49:30;;;;;;;32.57;13.37;;;;;;;;;;5015462;28;20116;-58
2024/01/19 01:51:55;;;;;;;38.30;14.07;;;;;;;;;;5025072;28;20409;-57
2024/01/19 01:54:20;;;;;;;32.72;13.48;;;;;;;;;;5036425;28;20110;-56
2024/01/19 01:56:46;;;;;;;33.15;13.70;;;;;;;;;;5021768;28;20480;-56
2024/01/19 01:59:11;;;;;;;36.00;14.65;;;;;;;;;;5019306;28;20041;-57
2024/01/19 02:01:37;;;;;;;38.87;13.83;;;;;;;;;;5029450;28;20355;-58
2024/01/19 02:04:02;;;;;;;34.17;14.10;;;;;;;;;;5015227;28;20057;-58
2024/01/19 02:06:28;;;;;;;35.40;14.43;;;;;;;;;;5034950;28;20044;-56
2024/01/19 02:08:54;;;;;;;33.60;13.15;;;;;;;;;;5034366;28;20056;-57
2024/01/19 02:11:19;;;;;;;32.40;13.13;;;;;;;;;;5033722;28;20769;-57
2024/01/19 02:13:44;;;;;;;31.73;12.63;;;;;;;;;;5031593;28;20495;-56
2024/01/19 02:16:10;;;;;;;33.10;13.18;;;;;;;;;;5027459;28;20021;-56
2024/01/19 02:18:35;;;;;;;34.10;13.33;;;;;;;;;;5031818;28;20466;-61
2024/01/19 02:21:00;;;;;;;34.17;14.43;;;;;;;;;;5035240;28;20017;-59
2024/01/19 02:23:26;;;;;;;38.20;14.57;;;;;;;;;;5015496;28;20028;-57
2024/01/19 02:25:51;;;;;;;35.60;13.93;;;;;;;;;;5031488;28;20033;-58
2024/01/19 02:28:17;;;;;;;34.08;14.63;;;;;;;;;;5035347;28;20048;-56
2024/01/19 02:30:44;;;;;;;35.35;14.07;;;;;;;;;;5029733;28;20486;-56
2024/01/19 02:33:09;;;;;;;35.50;13.85;;;;;;;;;;5036255;28;20114;-55
2024/01/19 02:35:34;;;;;;;36.53;14.73;;;;;;;;;;5036632;28;20515;-57
2024/01/19 02:38:00;;;;;;;34.23;14.47;;;;;;;;;;5042714;28;20021;-60
2024/01/19 02:40:25;;;;;;;36.65;13.02;;;;;;;;;;5046334;28;20497;-58
2024/01/19 02:42:50;;;;;;;32.50;13.87;;;;;;;;;;5048102;28;20026;-57
2024/01/19 02:45:15;;;;;;;35.70;14.10;;;;;;;;;;5055327;28;20017;-56
2024/01/19 02:47:40;;;;;;;31.67;12.90;;;;;;;;;;5033058;28;20389;-56
2024/01/19 02:50:06;;;;;;;31.30;12.83;;;;;;;;;;5014200;28;20433;-56
2024/01/19 02:52:31;;;;;;;34.20;14.10;;;;;;;;;;5013471;28;20053;-55
2024/01/19 02:54:56;;;;;;;32.17;13.20;;;;;;;;;;5014145;28;20029;-56
2024/01/19 02:57:21;;;;;;;34.27;13.77;;;;;;;;;;5021224;28;20489;-58
2024/01/19 02:59:46;;;;;;;34.20;12.95;;;;;;;;;;5015192;28;20037;-58
2024/01/19 03:02:12;;;;;;;36.72;14.00;;;;;;;;;;5013706;28;20084;-57
2024/01/19 03:04:37;;;;;;;39.85;13.85;;;;;;;;;;5013322;28;20218;-57
2024/01/19 03:07:03;;;;;;;34.53;13.90;;;;;;;;;;5025065;28;20079;-56
2024/01/19 03:09:28;;;;;;;38.07;14.00;;;;;;;;;;5023483;28;20062;-57
2024/01/19 03:11:53;;;;;;;36.20;13.95;;;;;;;;;;5022460;28;20026;-56
2024/01/19 03:14:18;;;;;;;33.85;13.98;;;;;;;;;;5026254;28;20051;-55
2024/01/19 03:16:43;;;;;;;34.73;13.97;;;;;;;;;;5034259;28;20029;-57
2024/01/19 03:19:09;;;;;;;36.00;13.97;;;;;;;;;;5029165;28;20037;-57
2024/01/19 03:21:34;;;;;;;36.53;13.40;;;;;;;;;;5014479;28;20467;-56
2024/01/19 03:23:59;;;;;;;32.90;13.87;;;;;;;;;;5016249;28;20025;-56
2024/01/19 03:26:24;;;;;;;36.50;14.65;;;;;;;;;;5018413;28;20057;-56
2024/01/19 03:28:49;;;;;;;36.13;13.70;;;;;;;;;;5020575;28;20026;-57
2024/01/19 03:31:15;;;;;;;29.88;12.75;;;;;;;;;;5033185;28;20037;-56
2024/01/19 03:33:40;;;;;;;29.27;12.25;;;;;;;;;;5028770;28;20040;-58
2024/01/19 03:36:05;;;;;;;35.65;13.32;;;;;;;;;;5018275;28;20036;-56
2024/01/19 03:38:31;;;;;;;36.20;13.40;;;;;;;;;;5043874;28;20111;-56
2024/01/19 03:40:56;;;;;;;32.17;12.85;;;;;;;;;;5032880;28;20146;-56
2024/01/19 03:43:21;;;;;;;34.22;13.73;;;;;;;;;;5032083;28;20032;-56
2024/01/19 03:45:46;;;;;;;32.17;12.83;;;;;;;;;;5018543;28;20049;-58
2024/01/19 03:48:11;;;;;;;32.70;12.52;;;;;;;;;;5027633;28;20507;-55
2024/01/19 03:50:37;;;;;;;31.88;12.65;;;;;;;;;;5026844;28;20393;-56
2024/01/19 03:53:02;;;;;;;30.30;12.93;;;;;;;;;;5030686;28;20049;-56
2024/01/19 03:55:27;;;;;;;31.80;12.40;;;;;;;;;;5012927;28;20034;-57
2024/01/19 03:57:52;;;;;;;28.13;11.73;;;;;;;;;;5019002;28;20018;-57
2024/01/19 04:00:17;;;;;;;32.97;12.27;;;;;;;;;;5020553;28;20033;-57
2024/01/19 04:02:42;;;;;;;32.87;12.77;;;;;;;;;;5027751;28;20071;-56
2024/01/19 04:05:08;;;;;;;28.43;11.47;;;;;;;;;;5012662;28;20160;-56
2024/01/19 04:07:33;;;;;;;31.65;12.77;;;;;;;;;;5011997;28;20052;-57
2024/01/19 04:09:58;;;;;;;33.63;12.87;;;;;;;;;;5029439;28;20020;-55
2024/01/19 04:12:23;;;;;;;29.43;11.70;;;;;;;;;;5015743;28;20017;-59
2024/01/19 04:14:49;;;;;;;26.98;10.93;;;;;;;;;;5022782;28;20057;-57
2024/01/19 04:17:14;;;;;;;30.35;12.18;;;;;;;;;;5032100;28;20067;-57
2024/01/19 04:19:40;;;;;;;30.70;12.23;;;;;;;;;;5030392;28;20109;-57
2024/01/19 04:22:05;;;;;;;30.25;12.32;;;;;;;;;;5019357;28;20104;-56
2024/01/19 04:24:31;;;;;;;38.17;13.03;;;;;;;;;;5016204;28;20033;-56
2024/01/19 04:26:56;;;;;;;27.45;11.40;;;;;;;;;;5031210;28;20068;-56
2024/01/19 04:29:21;;;;;;;30.63;11.77;;;;;;;;;;5028419;28;20021;-57
2024/01/19 04:31:46;;;;;;;28.88;11.48;;;;;;;;;;5030932;28;20040;-55
2024/01/19 04:34:11;;;;;;;28.00;11.30;;;;;;;;;;5027022;28;20105;-56
2024/01/19 04:36:37;;;;;;;25.67;10.83;;;;;;;;;;5012318;28;20036;-56
2024/01/19 04:39:02;;;;;;;31.17;12.03;;;;;;;;;;5011764;28;20018;-56
2024/01/19 04:41:27;;;;;;;32.70;11.63;;;;;;;;;;5011378;28;20425;-56
2024/01/19 04:43:53;;;;;;;30.10;12.07;;;;;;;;;;5018071;28;20021;-57
2024/01/19 04:46:18;;;;;;;30.98;11.02;;;;;;;;;;5030740;28;20416;-56
2024/01/19 04:48:43;;;;;;;28.55;11.30;;;;;;;;;;5031484;28;20036;-56
2024/01/19 04:51:08;;;;;;;29.58;12.20;;;;;;;;;;5031490;28;20026;-56
2024/01/19 04:53:33;;;;;;;31.20;11.18;;;;;;;;;;5032944;28;20025;-57
2024/01/19 04:55:58;;;;;;;33.22;11.38;;;;;;;;;;5033536;28;20021;-58
2024/01/19 04:58:24;;;;;;;26.90;10.43;;;;;;;;;;5022093;28;20026;-56
2024/01/19 05:00:49;;;;;;;26.77;11.02;;;;;;;;;;5034019;28;20164;-55
2024/01/19 05:03:15;;;;;;;29.52;10.80;;;;;;;;;;5036998;28;20029;-56
2024/01/19 05:05:40;;;;;;;27.00;10.30;;;;;;;;;;5040665;28;20071;-56
2024/01/19 05:08:05;;;;;;;30.50;11.60;;;;;;;;;;5039799;28;20124;-55
2024/01/19 05:10:32;;;;;;;24.13;10.03;;;;;;;;;;5042298;28;20033;-56
2024/01/19 05:12:57;;;;;;;30.42;10.85;;;;;;;;;;5031061;28;20424;-58
2024/01/19 05:15:22;;;;;;;27.73;11.20;;;;;;;;;;5029144;28;20087;-56
2024/01/19 05:17:47;;;;;;;27.40;11.83;;;;;;;;;;5029616;28;20022;-57
2024/01/19 05:20:12;;;;;;;34.92;11.10;;;;;;;;;;5029438;28;20033;-57
2024/01/19 05:22:38;;;;;;;30.05;10.48;;;;;;;;;;5022862;28;20698;-56
2024/01/19 05:25:03;;;;;;;26.27;10.75;;;;;;;;;;5025943;28;20501;-56
2024/01/19 05:27:28;;;;;;;30.25;11.40;;;;;;;;;;5021246;28;20025;-56
2024/01/19 05:29:53;;;;;;;27.83;11.23;;;;;;;;;;5030415;28;20033;-56
2024/01/19 05:32:18;;;;;;;28.48;11.13;;;;;;;;;;5018713;28;20560;-56
2024/01/19 05:34:44;;;;;;;26.27;10.07;;;;;;;;;;5012648;28;20036;-57
2024/01/19 05:37:09;;;;;;;28.67;10.53;;;;;;;;;;5021037;28;20021;-56
2024/01/19 05:39:34;;;;;;;26.87;10.53;;;;;;;;;;5017458;28;20022;-56
2024/01/19 05:41:59;;;;;;;28.40;10.40;;;;;;;;;;5029326;28;20017;-57
2024/01/19 05:44:24;;;;;;;29.13;10.57;;;;;;;;;;5026249;28;20108;-56
2024/01/19 05:46:49;;;;;;;27.85;10.50;;;;;;;;;;5044559;28;20037;-56
2024/01/19 05:49:15;;;;;;;30.98;11.13;;;;;;;;;;5019156;28;20466;-57
2024/01/19 05:51:42;;;;;;;27.73;10.50;;;;;;;;;;5020213;28;20025;-57
2024/01/19 05:54:07;;;;;;;27.45;10.70;;;;;;;;;;5022244;28;20033;-57
2024/01/19 05:56:32;;;;;;;29.40;10.77;;;;;;;;;;5023937;28;20035;-58
2024/01/19 05:58:57;;;;;;;29.63;10.85;;;;;;;;;;5026390;28;20025;-57
2024/01/19 06:01:23;;;;;;;30.85;10.68;;;;;;;;;;5023646;28;20863;-57
2024/01/19 06:03:48;;;;;;;28.80;11.73;;;;;;;;;;5027086;28;20060;-58
2024/01/19 06:06:13;;;;;;;27.23;10.97;;;;;;;;;;5011864;28;20436;-56
2024/01/19 06:08:39;;;;;;;25.73;9.93;;;;;;;;;;5032165;28;20025;-57
2024/01/19 06:11:04;;;;;;;26.83;10.85;;;;;;;;;;5034145;28;20087;-58
2024/01/19 06:13:29;;;;;;;28.55;10.45;;;;;;;;;;5037867;28;20038;-56
2024/01/19 06:15:54;;;;;;;27.60;11.40;;;;;;;;;;5036670;28;20025;-59
2024/01/19 06:18:19;;;;;;;27.80;10.98;;;;;;;;;;5031179;28;20037;-57
2024/01/19 06:20:44;;;;;;;27.00;11.23;;;;;;;;;;5021742;28;20045;-56
2024/01/19 06:23:10;;;;;;;24.92;10.52;;;;;;;;;;5040804;28;20033;-57
2024/01/19 06:25:36;;;;;;;29.27;10.85;;;;;;;;;;5037729;28;20040;-59
2024/01/19 06:28:02;;;;;;;27.83;11.03;;;;;;;;;;5034628;28;20022;-57
2024/01/19 06:30:27;;;;;;;29.52;11.02;;;;;;;;;;5034546;28;20420;-57
2024/01/19 06:32:52;;;;;;;26.10;10.67;;;;;;;;;;5038669;28;20021;-60
2024/01/19 06:35:17;;;;;;;25.67;9.97;;;;;;;;;;5035178;28;20056;-57
2024/01/19 06:37:42;;;;;;;29.30;11.23;;;;;;;;;;5037971;28;20021;-58
2024/01/19 06:40:08;;;;;;;26.40;10.00;;;;;;;;;;5032942;28;20026;-56
2024/01/19 06:42:34;;;;;;;28.00;10.88;;;;;;;;;;5035877;28;20037;-56
2024/01/19 06:44:59;;;;;;;29.42;11.00;;;;;;;;;;5037405;28;20033;-56
2024/01/19 06:47:24;;;;;;;29.67;11.20;;;;;;;;;;5026136;28;20489;-56
2024/01/19 06:49:49;;;;;;;29.48;10.95;;;;;;;;;;5031649;28;20029;-57
2024/01/19 06:52:15;;;;;;;30.00;11.25;;;;;;;;;;5033017;28;20385;-59
2024/01/19 06:54:40;;;;;;;27.40;10.47;;;;;;;;;;5040331;28;20040;-57
2024/01/19 06:57:05;;;;;;;27.77;11.73;;;;;;;;;;5020120;28;20513;-56
2024/01/19 06:59:32;;;;;;;28.77;12.02;;;;;;;;;;5025900;28;20118;-55
2024/01/19 07:01:57;;;;;;;29.33;11.45;;;;;;;;;;5021719;28;20017;-56
2024/01/19 07:04:22;;;;;;;26.90;11.27;;;;;;;;;;5029761;28;20029;-56
2024/01/19 07:06:47;;;;;;;27.30;11.25;;;;;;;;;;5033781;28;20030;-57
2024/01/19 07:09:13;;;;;;;27.53;10.73;;;;;;;;;;5019409;28;20022;-57
2024/01/19 07:11:38;;;;;;;27.23;11.40;;;;;;;;;;5034289;28;20482;-57
2024/01/19 07:14:03;;;;;;;31.10;11.37;;;;;;;;;;5034618;28;20457;-57
2024/01/19 07:16:28;;;;;;;30.93;11.43;;;;;;;;;;5033722;28;20022;-56
2024/01/19 07:18:53;;;;;;;29.73;11.30;;;;;;;;;;5028384;28;20029;-56
2024/01/19 07:21:18;;;;;;;27.10;11.77;;;;;;;;;;5035356;28;20030;-57
2024/01/19 07:23:43;;;;;;;28.97;11.53;;;;;;;;;;5037371;28;20037;-57
2024/01/19 07:26:09;;;;;;;33.00;11.88;;;;;;;;;;5037406;28;20049;-55
2024/01/19 07:28:34;;;;;;;29.70;12.40;;;;;;;;;;5038183;28;20295;-55
2024/01/19 07:30:59;;;;;;;29.73;11.90;;;;;;;;;;5026991;28;20018;-56
2024/01/19 07:33:25;;;;;;;30.25;12.00;;;;;;;;;;5038475;28;20022;-56
2024/01/19 07:35:50;;;;;;;30.13;11.77;;;;;;;;;;5037302;28;20021;-56
2024/01/19 07:38:16;;;;;;;28.45;11.43;;;;;;;;;;5034062;28;20075;-56
2024/01/19 07:40:41;;;;;;;29.27;11.23;;;;;;;;;;5034835;28;20045;-56
2024/01/19 07:43:06;;;;;;;31.65;11.55;;;;;;;;;;5037161;28;20044;-58
2024/01/19 07:45:31;;;;;;;28.40;11.70;;;;;;;;;;5033868;28;20028;-57
2024/01/19 07:47:56;;;;;;;28.33;11.73;;;;;;;;;;5031958;28;20017;-55
2024/01/19 07:50:22;;;;;;;27.45;11.90;;;;;;;;;;5014535;28;20078;-56
2024/01/19 07:52:47;;;;;;;27.83;10.90;;;;;;;;;;5021868;28;20037;-57
2024/01/19 07:55:13;;;;;;;32.10;12.18;;;;;;;;;;5034070;28;20025;-56
2024/01/19 07:57:40;;;;;;;27.27;11.63;;;;;;;;;;5032014;28;20026;-58
2024/01/19 08:00:06;;;;;;;31.52;12.02;;;;;;;;;;5018304;28;20084;-57
2024/01/19 08:02:31;;;;;;;25.10;11.18;;;;;;;;;;5025139;28;20401;-56
2024/01/19 08:04:56;;;;;;;26.20;11.47;;;;;;;;;;5025816;28;20024;-56
2024/01/19 08:07:21;;;;;;;27.35;11.30;;;;;;;;;;5025607;28;20025;-56
2024/01/19 08:09:46;;;;;;;24.35;9.93;;;;;;;;;;5030681;28;20026;-56
2024/01/19 08:12:11;;;;;;;28.17;11.23;;;;;;;;;;5032316;28;20025;-57
2024/01/19 08:14:37;;;;;;;29.63;10.93;;;;;;;;;;5032592;28;20022;-56
2024/01/19 08:17:02;;;;;;;24.33;9.68;;;;;;;;;;5032862;28;20495;-56
2024/01/19 08:19:28;;;;;;;25.17;9.95;;;;;;;;;;5032573;28;20018;-56
2024/01/19 08:21:53;;;;;;;21.77;9.43;;;;;;;;;;5032440;28;20017;-57
2024/01/19 08:24:18;;;;;;;19.77;8.75;;;;;;;;;;5030942;28;20040;-56
2024/01/19 08:26:43;;;;;;;23.25;8.52;;;;;;;;;;5032137;28;20030;-56
2024/01/19 08:29:08;;;;;;;16.57;6.77;;;;;;;;;;5036393;28;20030;-57
2024/01/19 08:31:33;;;;;;;17.33;6.90;;;;;;;;;;5036652;28;20093;-57
2024/01/19 08:33:59;;;;;;;19.37;7.77;;;;;;;;;;5042124;28;20077;-57
2024/01/19 08:36:24;;;;;;;19.80;8.27;;;;;;;;;;5045013;28;20019;-57
2024/01/19 08:38:52;;;;;;;21.93;7.60;;;;;;;;;;5035837;28;20385;-56
2024/01/19 08:41:17;;;;;;;19.05;7.70;;;;;;;;;;5036645;28;20503;-57
2024/01/19 08:43:42;;;;;;;15.43;6.43;;;;;;;;;;5031967;28;20038;-57
2024/01/19 08:46:08;;;;;;;15.63;7.27;;;;;;;;;;5036067;28;20017;-57
2024/01/19 08:48:33;;;;;;;15.90;6.77;;;;;;;;;;5033389;28;20413;-57
2024/01/19 08:50:58;;;;;;;19.45;7.57;;;;;;;;;;5032498;28;20018;-57
2024/01/19 08:53:24;;;;;;;15.52;7.07;;;;;;;;;;5027855;28;20026;-57
2024/01/19 08:55:49;;;;;;;15.27;6.60;;;;;;;;;;5030802;28;20028;-57
2024/01/19 08:58:15;;;;;;;18.70;7.70;;;;;;;;;;5037080;28;20493;-56
2024/01/19 09:00:40;;;;;;;14.87;7.07;;;;;;;;;;5036658;28;20048;-56
2024/01/19 09:03:05;;;;;;;16.90;6.70;;;;;;;;;;5036998;28;20424;-57
2024/01/19 09:05:30;;;;;;;15.70;6.35;;;;;;;;;;5031785;28;20049;-57
2024/01/19 09:07:55;;;;;;;17.13;6.72;;;;;;;;;;5035367;28;20032;-57
2024/01/19 09:10:23;;;;;;;13.90;5.82;;;;;;;;;;5034931;28;20021;-57
2024/01/19 09:12:48;;;;;;;16.42;6.40;;;;;;;;;;5030264;28;20057;-57
2024/01/19 09:15:16;;;;;;;13.85;6.43;;;;;;;;;;5032265;28;20029;-57
2024/01/19 09:17:41;;;;;;;15.93;6.40;;;;;;;;;;5031907;28;20021;-57
2024/01/19 09:20:06;;;;;;;14.98;5.70;;;;;;;;;;5030338;28;20048;-57
2024/01/19 09:22:31;;;;;;;15.23;5.90;;;;;;;;;;5029692;28;20028;-57
2024/01/19 09:24:57;;;;;;;14.50;6.15;;;;;;;;;;5031908;28;20021;-57
2024/01/19 09:27:22;;;;;;;13.00;5.37;;;;;;;;;;5032005;28;20025;-58
2024/01/19 09:29:48;;;;;;;14.00;5.47;;;;;;;;;;5031886;28;20021;-56
2024/01/19 09:32:16;;;;;;;14.15;5.65;;;;;;;;;;5030388;28;20032;-57
2024/01/19 09:34:41;;;;;;;13.55;5.50;;;;;;;;;;5030399;28;20025;-56
2024/01/19 09:37:06;;;;;;;13.07;5.10;;;;;;;;;;5033337;28;20430;-59
2024/01/19 09:39:32;;;;;;;14.97;5.37;;;;;;;;;;5033858;28;20018;-58
2024/01/19 09:42:02;;;;;;;19.05;6.63;;;;;;;;;;5025846;28;20228;-56
2024/01/19 09:44:30;;;;;;;12.38;5.07;;;;;;;;;;5029482;28;20555;-59
2024/01/19 09:47:15;;;;;;;11.40;4.97;;;;;;;;;;5028185;28;20030;-57
2024/01/19 09:49:50;;;;;;;13.25;4.38;;;;;;;;;;5027302;28;20397;-57
2024/01/19 09:52:15;;;;;;;13.27;5.10;;;;;;;;;;5028316;28;20026;-58
2024/01/19 09:54:40;;;;;;;15.30;5.30;;;;;;;;;;5031574;28;20025;-57
2024/01/19 09:57:06;;;;;;;12.00;4.40;;;;;;;;;;5030724;28;20029;-59
2024/01/19 09:59:31;;;;;;;11.93;4.23;;;;;;;;;;5030459;28;20816;-58
2024/01/19 10:01:57;;;;;;;13.02;4.55;;;;;;;;;;5031210;28;20052;-58
2024/01/19 10:04:22;;;;;;;12.10;4.72;;;;;;;;;;5030585;28;20017;-56
2024/01/19 10:06:49;;;;;;;12.03;4.53;;;;;;;;;;5032386;28;20032;-57
2024/01/19 10:09:14;;;;;;;12.13;4.65;;;;;;;;;;5034536;28;20026;-58
2024/01/19 10:11:42;;;;;;;11.48;3.28;;;;;;;;;;5033799;28;20028;-57
2024/01/19 10:14:07;;;;;;;7.25;2.90;;;;;;;;;;5034145;28;20021;-57
2024/01/19 10:16:34;;;;;;;10.10;2.50;;;;;;;;;;5034805;28;20013;-57
2024/01/19 10:19:01;;;;;;;7.60;2.40;;;;;;;;;;5034293;28;20040;-58
2024/01/19 10:21:26;;;;;;;;;;;;;;;;;;5034669;28;20393;-58
2024/01/19 10:24:06;;;;;;;8.02;2.60;;;;;;;;;;5034144;28;19921;-56
2024/01/19 10:26:31;;;;;;;6.80;2.55;;;;;;;;;;5035168;28;20022;-58
2024/01/19 10:28:56;;;;;;;8.75;2.85;;;;;;;;;;5031688;28;20018;-57
2024/01/19 10:31:22;;;;;;;7.53;2.70;;;;;;;;;;5035042;28;20062;-58
2024/01/19 10:33:51;;;;;;;7.72;2.55;;;;;;;;;;5035600;28;20024;-58
2024/01/19 10:36:16;;;;;;;9.23;2.78;;;;;;;;;;5035415;28;20025;-56
2024/01/19 10:38:41;;;;;;;11.77;2.63;;;;;;;;;;5034803;28;20415;-58
2024/01/19 10:41:13;;;;;;;5.97;2.10;;;;;;;;;;5032235;28;20029;-57
2024/01/19 10:43:38;;;;;;;7.82;2.47;;;;;;;;;;5034647;28;20112;-56
2024/01/19 10:46:17;;;;;;;8.65;2.50;;;;;;;;;;5033815;28;20096;-58
2024/01/19 10:48:46;;;;;;;7.97;2.42;;;;;;;;;;5034176;28;20029;-58
2024/01/19 10:51:11;;;;;;;11.88;2.60;;;;;;;;;;5034080;28;20024;-58
2024/01/19 10:53:36;;;;;;;8.87;2.40;;;;;;;;;;5032762;28;20026;-57
2024/01/19 10:56:03;;;;;;;7.78;2.70;;;;;;;;;;5034180;28;20022;-57
2024/01/19 10:58:31;;;;;;;8.20;2.13;;;;;;;;;;5033663;28;20021;-57
2024/01/19 11:01:11;;;;;;;6.68;2.33;;;;;;;;;;5034968;28;20117;-57
2024/01/19 11:03:36;;;;;;;9.55;3.08;;;;;;;;;;5031812;28;20087;-57
2024/01/19 11:06:03;;;;;;;7.60;2.47;;;;;;;;;;5034647;28;20029;-56
2024/01/19 11:08:31;;;;;;;8.38;3.03;;;;;;;;;;5035757;28;20424;-56
2024/01/19 11:10:56;;;;;;;10.55;2.53;;;;;;;;;;5038457;28;20017;-57
2024/01/19 11:13:23;;;;;;;8.43;3.15;;;;;;;;;;5039353;28;20129;-59
2024/01/19 11:15:50;;;;;;;8.45;2.80;;;;;;;;;;5028106;28;20385;-58
2024/01/19 11:18:15;;;;;;;8.27;2.85;;;;;;;;;;5040536;28;20021;-58
2024/01/19 11:20:40;;;;;;;10.33;3.10;;;;;;;;;;5038139;28;20122;-62
2024/01/19 11:23:06;;;;;;;9.50;3.30;;;;;;;;;;5033039;28;20454;-57
2024/01/19 11:25:34;;;;;;;11.38;3.00;;;;;;;;;;5034056;28;20394;-57
2024/01/19 11:28:04;;;;;;;9.30;2.70;;;;;;;;;;5032384;28;20021;-57
2024/01/19 11:30:39;;;;;;;7.72;3.13;;;;;;;;;;5031520;28;20104;-57
2024/01/19 11:33:19;;;;;;;9.82;3.50;;;;;;;;;;5032728;28;20033;-58
2024/01/19 11:35:48;;;;;;;10.75;3.60;;;;;;;;;;5032816;28;20500;-58
2024/01/19 11:38:32;;;;;;;9.20;3.58;;;;;;;;;;5032362;28;20108;-58
2024/01/19 11:40:57;;;;;;;11.50;3.50;;;;;;;;;;5031013;28;20029;-57
2024/01/19 11:43:35;;;;;;;9.32;3.25;;;;;;;;;;5030611;28;20381;-57
2024/01/19 11:46:00;;;;;;;8.48;3.33;;;;;;;;;;5026958;28;20060;-57
2024/01/19 11:48:41;;;;;;;9.13;3.33;;;;;;;;;;5031845;28;20487;-56
2024/01/19 11:51:07;;;;;;;13.45;3.92;;;;;;;;;;5031912;28;20037;-57
2024/01/19 11:53:51;;;;;;;11.52;3.45;;;;;;;;;;5027271;28;20021;-58
2024/01/19 11:56:22;;;;;;;9.52;3.20;;;;;;;;;;5030307;28;20269;-57
2024/01/19 11:58:47;;;;;;;10.32;3.50;;;;;;;;;;5030121;28;20028;-57
2024/01/19 12:01:13;;;;;;;10.50;3.87;;;;;;;;;;5031726;28;20025;-57
2024/01/19 12:03:38;;;;;;;8.30;3.33;;;;;;;;;;5032095;28;20021;-57
2024/01/19 12:06:05;;;;;;;8.27;3.55;;;;;;;;;;5032484;28;20390;-57
2024/01/19 12:08:31;;;;;;;10.30;3.67;;;;;;;;;;5025776;28;20131;-58
2024/01/19 12:11:02;;;;;;;8.10;3.43;;;;;;;;;;5026235;28;20017;-57
2024/01/19 12:13:27;;;;;;;11.45;4.15;;;;;;;;;;5021408;28;20021;-57
2024/01/19 12:15:53;;;;;;;15.88;4.72;;;;;;;;;;5031885;28;20533;-57
2024/01/19 12:18:18;;;;;;;11.60;3.95;;;;;;;;;;5033080;28;20028;-57
2024/01/19 12:20:45;;;;;;;11.60;3.53;;;;;;;;;;5031818;28;20520;-58
2024/01/19 12:23:12;;;;;;;15.18;4.50;;;;;;;;;;5031705;28;20183;-57
2024/01/19 12:25:38;;;;;;;12.88;3.97;;;;;;;;;;5032166;28;20073;-58
2024/01/19 12:28:04;;;;;;;11.85;4.43;;;;;;;;;;5031697;28;20044;-56
2024/01/19 12:30:31;;;;;;;11.63;4.10;;;;;;;;;;5031047;28;20106;-57
2024/01/19 12:32:58;;;;;;;10.13;3.97;;;;;;;;;;5026081;28;20607;-57
2024/01/19 12:35:23;;;;;;;13.02;4.57;;;;;;;;;;5023699;28;20114;-57
2024/01/19 12:37:48;;;;;;;10.63;4.33;;;;;;;;;;5027567;28;20097;-57
2024/01/19 12:40:25;;;;;;;10.60;4.15;;;;;;;;;;5030175;28;20021;-57
2024/01/19 12:42:50;;;;;;;10.95;4.15;;;;;;;;;;5026827;28;20029;-57
2024/01/19 12:45:17;;;;;;;14.17;4.93;;;;;;;;;;5027304;28;20462;-58
2024/01/19 12:47:52;;;;;;;13.18;4.25;;;;;;;;;;5032186;28;20148;-58
2024/01/19 12:50:17;;;;;;;13.05;4.28;;;;;;;;;;5033049;28;20041;-57
2024/01/19 12:52:43;;;;;;;13.07;5.13;;;;;;;;;;5035183;28;20107;-57
2024/01/19 12:55:08;;;;;;;15.25;5.18;;;;;;;;;;5036973;28;20033;-56
2024/01/19 12:57:33;;;;;;;12.23;4.43;;;;;;;;;;5038644;28;20018;-57
2024/01/19 13:00:08;;;;;;;14.90;5.00;;;;;;;;;;5038077;28;20502;-56
2024/01/19 13:02:33;;;;;;;10.15;4.85;;;;;;;;;;5038341;28;20048;-57
2024/01/19 13:04:58;;;;;;;15.37;5.20;;;;;;;;;;5039951;28;20026;-57
2024/01/19 13:07:24;;;;;;;13.38;4.80;;;;;;;;;;5041878;28;20045;-58
2024/01/19 13:10:03;;;;;;;11.98;4.63;;;;;;;;;;5042798;28;20033;-59
2024/01/19 13:12:28;;;;;;;11.10;5.38;;;;;;;;;;5034923;28;20465;-57
2024/01/19 13:15:02;;;;;;;13.43;5.40;;;;;;;;;;5030977;28;20010;-58
2024/01/19 13:17:27;;;;;;;13.82;5.35;;;;;;;;;;5032479;28;20112;-58
2024/01/19 13:19:52;;;;;;;11.67;4.97;;;;;;;;;;5027996;28;20124;-56
2024/01/19 13:22:17;;;;;;;14.20;5.20;;;;;;;;;;5033427;28;20029;-57
2024/01/19 13:24:44;;;;;;;12.13;4.97;;;;;;;;;;5034163;28;20034;-59
2024/01/19 13:27:11;;;;;;;10.07;4.40;;;;;;;;;;5034600;28;20014;-57
2024/01/19 13:29:36;;;;;;;11.98;5.05;;;;;;;;;;5037290;28;20026;-58
2024/01/19 13:32:02;;;;;;;11.70;4.97;;;;;;;;;;5039171;28;20033;-58
2024/01/19 13:34:27;;;;;;;10.70;4.50;;;;;;;;;;5032969;28;20231;-57
2024/01/19 13:36:52;;;;;;;10.95;5.03;;;;;;;;;;5036526;28;20014;-58
2024/01/19 13:39:18;;;;;;;9.83;4.37;;;;;;;;;;5033154;28;20031;-57
2024/01/19 13:41:43;;;;;;;12.63;4.87;;;;;;;;;;5043770;28;20036;-58
2024/01/19 13:44:08;;;;;;;10.45;4.75;;;;;;;;;;5046699;28;20029;-60
2024/01/19 13:46:33;;;;;;;11.03;4.80;;;;;;;;;;5042773;28;20049;-58
2024/01/19 13:48:58;;;;;;;11.07;4.60;;;;;;;;;;5037390;28;20021;-57
2024/01/19 13:51:23;;;;;;;14.02;5.45;;;;;;;;;;5029054;28;20021;-58
2024/01/19 13:53:49;;;;;;;12.02;4.70;;;;;;;;;;5033275;28;20029;-57
2024/01/19 13:56:14;;;;;;;10.80;4.47;;;;;;;;;;5032056;28;20025;-58
2024/01/19 13:58:40;;;;;;;12.00;4.60;;;;;;;;;;5034305;28;20384;-58
2024/01/19 14:01:06;;;;;;;11.50;5.30;;;;;;;;;;5028878;28;20493;-57
2024/01/19 14:03:31;;;;;;;13.60;4.80;;;;;;;;;;5029971;28;20121;-57
2024/01/19 14:05:56;;;;;;;13.97;5.10;;;;;;;;;;5026839;28;20112;-57
2024/01/19 14:08:22;;;;;;;11.73;4.70;;;;;;;;;;5035308;28;20014;-57
2024/01/19 14:10:49;;;;;;;15.65;4.88;;;;;;;;;;5030581;28;20032;-58
2024/01/19 14:13:14;;;;;;;15.02;4.80;;;;;;;;;;5032138;28;20053;-57
2024/01/19 14:15:39;;;;;;;12.27;4.60;;;;;;;;;;5033300;28;20042;-58